sensor_id;sensor_type;location;lat;lon;timestamp;P1;durP1;ratioP1;P2;durP2;ratioP2
76761;SDS011;65705;51.032;13.790;2023-06-14T00:01:46;6.35;;;1.77;;
76761;SDS011;65705;51.032;13.790;2023-06-14T00:04:13;2.97;;;1.65;;
76761;SDS011;65705;51.032;13.790;2023-06-14T00:06:39;4.20;;;1.45;;
76761;SDS011;65705;51.032;13.790;2023-06-14T00:09:06;2.83;;;1.50;;
76761;SDS011;65705;51.032;13.790;2023-06-14T00:11:34;6.70;;;1.70;;
76761;SDS011;65705;51.032;13.790;2023-06-14T00:13:59;3.10;;;1.13;;
76761;SDS011;65705;51.032;13.790;2023-06-14T00:16:25;3.30;;;1.60;;
76761;SDS011;65705;51.032;13.790;2023-06-14T00:18:51;4.65;;;1.35;;
76761;SDS011;65705;51.032;13.790;2023-06-14T00:21:17;3.08;;;1.50;;
76761;SDS011;65705;51.032;13.790;2023-06-14T00:23:43;4.07;;;1.40;;
76761;SDS011;65705;51.032;13.790;2023-06-14T00:26:09;3.83;;;1.42;;
76761;SDS011;65705;51.032;13.790;2023-06-14T00:28:35;3.22;;;1.60;;
76761;SDS011;65705;51.032;13.790;2023-06-14T00:31:01;4.32;;;2.25;;
76761;SDS011;65705;51.032;13.790;2023-06-14T00:33:27;3.78;;;1.48;;
76761;SDS011;65705;51.032;13.790;2023-06-14T00:35:53;2.97;;;1.30;;
76761;SDS011;65705;51.032;13.790;2023-06-14T00:38:22;4.00;;;1.73;;
76761;SDS011;65705;51.032;13.790;2023-06-14T00:40:47;4.68;;;1.73;;
76761;SDS011;65705;51.032;13.790;2023-06-14T00:43:13;2.80;;;1.42;;
76761;SDS011;65705;51.032;13.790;2023-06-14T00:45:39;3.72;;;1.23;;
76761;SDS011;65705;51.032;13.790;2023-06-14T00:48:05;5.38;;;1.70;;
76761;SDS011;65705;51.032;13.790;2023-06-14T00:50:32;4.53;;;1.70;;
76761;SDS011;65705;51.032;13.790;2023-06-14T00:52:59;3.63;;;1.65;;
76761;SDS011;65705;51.032;13.790;2023-06-14T00:55:26;3.75;;;1.73;;
76761;SDS011;65705;51.032;13.790;2023-06-14T00:57:55;3.35;;;1.65;;
76761;SDS011;65705;51.032;13.790;2023-06-14T01:00:21;3.00;;;1.70;;
76761;SDS011;65705;51.032;13.790;2023-06-14T01:02:47;3.05;;;1.50;;
76761;SDS011;65705;51.032;13.790;2023-06-14T01:05:14;4.40;;;1.70;;
76761;SDS011;65705;51.032;13.790;2023-06-14T01:13:21;3.00;;;1.30;;
76761;SDS011;65705;51.032;13.790;2023-06-14T01:15:53;4.47;;;1.70;;
76761;SDS011;65705;51.032;13.790;2023-06-14T01:18:21;4.80;;;1.52;;
76761;SDS011;65705;51.032;13.790;2023-06-14T01:20:49;3.72;;;1.65;;
76761;SDS011;65705;51.032;13.790;2023-06-14T01:23:16;5.05;;;1.40;;
76761;SDS011;65705;51.032;13.790;2023-06-14T01:25:43;5.28;;;1.73;;
76761;SDS011;65705;51.032;13.790;2023-06-14T01:28:11;4.85;;;1.90;;
76761;SDS011;65705;51.032;13.790;2023-06-14T01:30:39;4.82;;;1.63;;
76761;SDS011;65705;51.032;13.790;2023-06-14T01:33:14;4.80;;;1.70;;
76761;SDS011;65705;51.032;13.790;2023-06-14T01:35:42;9.10;;;1.70;;
76761;SDS011;65705;51.032;13.790;2023-06-14T01:38:09;3.90;;;2.10;;
76761;SDS011;65705;51.032;13.790;2023-06-14T01:40:35;3.03;;;1.80;;
76761;SDS011;65705;51.032;13.790;2023-06-14T01:43:02;3.78;;;1.90;;
76761;SDS011;65705;51.032;13.790;2023-06-14T01:45:29;4.18;;;1.88;;
76761;SDS011;65705;51.032;13.790;2023-06-14T01:47:56;4.28;;;1.77;;
76761;SDS011;65705;51.032;13.790;2023-06-14T01:50:22;5.05;;;1.90;;
76761;SDS011;65705;51.032;13.790;2023-06-14T01:52:48;3.20;;;1.77;;
76761;SDS011;65705;51.032;13.790;2023-06-14T01:55:14;4.10;;;2.00;;
76761;SDS011;65705;51.032;13.790;2023-06-14T01:57:40;4.75;;;1.92;;
76761;SDS011;65705;51.032;13.790;2023-06-14T02:00:06;4.10;;;2.03;;
76761;SDS011;65705;51.032;13.790;2023-06-14T02:02:38;4.07;;;1.85;;
76761;SDS011;65705;51.032;13.790;2023-06-14T02:05:04;3.60;;;1.98;;
76761;SDS011;65705;51.032;13.790;2023-06-14T02:07:30;4.07;;;2.10;;
76761;SDS011;65705;51.032;13.790;2023-06-14T02:09:56;5.25;;;2.00;;
76761;SDS011;65705;51.032;13.790;2023-06-14T02:12:22;6.43;;;2.15;;
76761;SDS011;65705;51.032;13.790;2023-06-14T02:14:47;3.83;;;2.10;;
76761;SDS011;65705;51.032;13.790;2023-06-14T02:17:14;4.18;;;2.10;;
76761;SDS011;65705;51.032;13.790;2023-06-14T02:19:40;5.40;;;2.10;;
76761;SDS011;65705;51.032;13.790;2023-06-14T02:22:06;5.80;;;2.42;;
76761;SDS011;65705;51.032;13.790;2023-06-14T02:24:33;6.40;;;1.92;;
76761;SDS011;65705;51.032;13.790;2023-06-14T02:26:59;7.82;;;2.35;;
76761;SDS011;65705;51.032;13.790;2023-06-14T02:29:25;6.20;;;1.98;;
76761;SDS011;65705;51.032;13.790;2023-06-14T02:31:51;3.25;;;1.90;;
76761;SDS011;65705;51.032;13.790;2023-06-14T02:34:20;6.25;;;1.90;;
76761;SDS011;65705;51.032;13.790;2023-06-14T02:36:47;7.43;;;2.25;;
76761;SDS011;65705;51.032;13.790;2023-06-14T02:39:13;5.60;;;1.90;;
76761;SDS011;65705;51.032;13.790;2023-06-14T02:41:39;4.10;;;2.00;;
76761;SDS011;65705;51.032;13.790;2023-06-14T02:44:05;5.35;;;2.42;;
76761;SDS011;65705;51.032;13.790;2023-06-14T02:46:31;4.13;;;2.10;;
76761;SDS011;65705;51.032;13.790;2023-06-14T02:48:57;4.22;;;2.20;;
76761;SDS011;65705;51.032;13.790;2023-06-14T02:51:23;6.03;;;2.10;;
76761;SDS011;65705;51.032;13.790;2023-06-14T02:53:49;5.82;;;2.17;;
76761;SDS011;65705;51.032;13.790;2023-06-14T02:56:15;4.32;;;2.13;;
76761;SDS011;65705;51.032;13.790;2023-06-14T02:58:43;4.43;;;2.00;;
76761;SDS011;65705;51.032;13.790;2023-06-14T03:01:09;4.75;;;2.20;;
76761;SDS011;65705;51.032;13.790;2023-06-14T03:03:38;4.50;;;2.35;;
76761;SDS011;65705;51.032;13.790;2023-06-14T03:06:04;8.27;;;2.13;;
76761;SDS011;65705;51.032;13.790;2023-06-14T03:08:32;4.22;;;1.88;;
76761;SDS011;65705;51.032;13.790;2023-06-14T03:11:07;4.60;;;2.30;;
76761;SDS011;65705;51.032;13.790;2023-06-14T03:13:34;4.95;;;2.28;;
76761;SDS011;65705;51.032;13.790;2023-06-14T03:16:08;5.57;;;2.30;;
76761;SDS011;65705;51.032;13.790;2023-06-14T03:18:36;5.68;;;2.00;;
76761;SDS011;65705;51.032;13.790;2023-06-14T03:21:04;3.90;;;2.22;;
76761;SDS011;65705;51.032;13.790;2023-06-14T03:23:31;4.82;;;2.17;;
76761;SDS011;65705;51.032;13.790;2023-06-14T03:25:57;5.22;;;2.13;;
76761;SDS011;65705;51.032;13.790;2023-06-14T03:28:23;7.72;;;2.22;;
76761;SDS011;65705;51.032;13.790;2023-06-14T03:30:50;5.30;;;2.35;;
76761;SDS011;65705;51.032;13.790;2023-06-14T03:33:16;6.43;;;2.47;;
76761;SDS011;65705;51.032;13.790;2023-06-14T03:35:42;8.18;;;2.05;;
76761;SDS011;65705;51.032;13.790;2023-06-14T03:38:09;6.20;;;2.08;;
76761;SDS011;65705;51.032;13.790;2023-06-14T03:40:35;15.02;;;2.42;;
76761;SDS011;65705;51.032;13.790;2023-06-14T03:43:03;5.13;;;2.50;;
76761;SDS011;65705;51.032;13.790;2023-06-14T03:45:29;6.70;;;2.13;;
76761;SDS011;65705;51.032;13.790;2023-06-14T03:47:56;7.13;;;2.13;;
76761;SDS011;65705;51.032;13.790;2023-06-14T03:50:22;4.18;;;2.17;;
76761;SDS011;65705;51.032;13.790;2023-06-14T03:52:49;5.88;;;2.40;;
76761;SDS011;65705;51.032;13.790;2023-06-14T03:55:16;6.32;;;2.35;;
76761;SDS011;65705;51.032;13.790;2023-06-14T03:57:42;3.90;;;2.10;;
76761;SDS011;65705;51.032;13.790;2023-06-14T04:00:11;6.10;;;2.50;;
76761;SDS011;65705;51.032;13.790;2023-06-14T04:02:41;9.60;;;2.20;;
76761;SDS011;65705;51.032;13.790;2023-06-14T04:05:10;6.32;;;2.03;;
76761;SDS011;65705;51.032;13.790;2023-06-14T04:07:39;4.63;;;2.33;;
76761;SDS011;65705;51.032;13.790;2023-06-14T04:10:11;4.10;;;2.10;;
76761;SDS011;65705;51.032;13.790;2023-06-14T04:12:38;5.10;;;2.30;;
76761;SDS011;65705;51.032;13.790;2023-06-14T04:15:04;6.25;;;2.35;;
76761;SDS011;65705;51.032;13.790;2023-06-14T04:17:32;4.82;;;2.42;;
76761;SDS011;65705;51.032;13.790;2023-06-14T04:20:01;3.80;;;2.17;;
76761;SDS011;65705;51.032;13.790;2023-06-14T04:22:30;5.10;;;2.58;;
76761;SDS011;65705;51.032;13.790;2023-06-14T04:24:58;6.00;;;2.40;;
76761;SDS011;65705;51.032;13.790;2023-06-14T04:27:26;5.63;;;2.38;;
76761;SDS011;65705;51.032;13.790;2023-06-14T04:29:54;4.10;;;2.10;;
76761;SDS011;65705;51.032;13.790;2023-06-14T04:32:29;3.58;;;2.08;;
76761;SDS011;65705;51.032;13.790;2023-06-14T04:34:59;4.43;;;2.00;;
76761;SDS011;65705;51.032;13.790;2023-06-14T04:37:30;5.97;;;2.50;;
76761;SDS011;65705;51.032;13.790;2023-06-14T04:39:56;4.65;;;2.53;;
76761;SDS011;65705;51.032;13.790;2023-06-14T04:42:23;4.25;;;2.20;;
76761;SDS011;65705;51.032;13.790;2023-06-14T04:44:56;5.10;;;2.30;;
76761;SDS011;65705;51.032;13.790;2023-06-14T04:47:22;4.82;;;2.28;;
76761;SDS011;65705;51.032;13.790;2023-06-14T04:49:50;5.43;;;3.10;;
76761;SDS011;65705;51.032;13.790;2023-06-14T04:54:47;3.88;;;2.20;;
76761;SDS011;65705;51.032;13.790;2023-06-14T04:57:16;3.15;;;2.00;;
76761;SDS011;65705;51.032;13.790;2023-06-14T04:59:44;4.30;;;2.40;;
76761;SDS011;65705;51.032;13.790;2023-06-14T05:02:10;7.85;;;2.55;;
76761;SDS011;65705;51.032;13.790;2023-06-14T05:04:37;6.13;;;2.35;;
76761;SDS011;65705;51.032;13.790;2023-06-14T05:07:07;5.30;;;2.67;;
76761;SDS011;65705;51.032;13.790;2023-06-14T05:09:33;4.93;;;2.67;;
76761;SDS011;65705;51.032;13.790;2023-06-14T05:11:59;6.25;;;2.80;;
76761;SDS011;65705;51.032;13.790;2023-06-14T05:14:25;7.63;;;2.75;;
76761;SDS011;65705;51.032;13.790;2023-06-14T05:16:52;5.60;;;2.75;;
76761;SDS011;65705;51.032;13.790;2023-06-14T05:19:18;7.70;;;2.83;;
76761;SDS011;65705;51.032;13.790;2023-06-14T05:21:46;5.05;;;2.47;;
76761;SDS011;65705;51.032;13.790;2023-06-14T05:24:13;5.18;;;2.70;;
76761;SDS011;65705;51.032;13.790;2023-06-14T05:26:39;5.10;;;2.80;;
76761;SDS011;65705;51.032;13.790;2023-06-14T05:29:05;9.02;;;2.55;;
76761;SDS011;65705;51.032;13.790;2023-06-14T05:31:31;4.75;;;2.70;;
76761;SDS011;65705;51.032;13.790;2023-06-14T05:33:58;7.60;;;2.88;;
76761;SDS011;65705;51.032;13.790;2023-06-14T05:36:23;6.07;;;3.08;;
76761;SDS011;65705;51.032;13.790;2023-06-14T05:38:50;6.03;;;2.47;;
76761;SDS011;65705;51.032;13.790;2023-06-14T05:41:25;6.07;;;2.88;;
76761;SDS011;65705;51.032;13.790;2023-06-14T05:43:51;7.03;;;3.10;;
76761;SDS011;65705;51.032;13.790;2023-06-14T05:46:17;8.88;;;2.90;;
76761;SDS011;65705;51.032;13.790;2023-06-14T05:48:50;5.70;;;2.60;;
76761;SDS011;65705;51.032;13.790;2023-06-14T05:51:16;5.78;;;3.13;;
76761;SDS011;65705;51.032;13.790;2023-06-14T05:53:45;5.97;;;2.63;;
76761;SDS011;65705;51.032;13.790;2023-06-14T05:56:14;7.97;;;3.58;;
76761;SDS011;65705;51.032;13.790;2023-06-14T05:58:41;4.97;;;2.45;;
76761;SDS011;65705;51.032;13.790;2023-06-14T06:01:06;5.32;;;3.35;;
76761;SDS011;65705;51.032;13.790;2023-06-14T06:03:32;6.28;;;2.90;;
76761;SDS011;65705;51.032;13.790;2023-06-14T06:05:58;6.95;;;3.42;;
76761;SDS011;65705;51.032;13.790;2023-06-14T06:08:25;6.05;;;3.20;;
76761;SDS011;65705;51.032;13.790;2023-06-14T06:10:51;7.13;;;3.03;;
76761;SDS011;65705;51.032;13.790;2023-06-14T06:13:17;11.10;;;3.20;;
76761;SDS011;65705;51.032;13.790;2023-06-14T06:15:42;6.15;;;3.25;;
76761;SDS011;65705;51.032;13.790;2023-06-14T06:18:08;5.30;;;2.95;;
76761;SDS011;65705;51.032;13.790;2023-06-14T06:20:34;6.25;;;3.03;;
76761;SDS011;65705;51.032;13.790;2023-06-14T06:23:01;6.43;;;3.33;;
76761;SDS011;65705;51.032;13.790;2023-06-14T06:25:27;9.40;;;3.30;;
76761;SDS011;65705;51.032;13.790;2023-06-14T06:27:53;6.10;;;3.33;;
76761;SDS011;65705;51.032;13.790;2023-06-14T06:30:21;7.68;;;3.40;;
76761;SDS011;65705;51.032;13.790;2023-06-14T06:32:47;7.38;;;3.25;;
76761;SDS011;65705;51.032;13.790;2023-06-14T06:35:13;6.22;;;3.00;;
76761;SDS011;65705;51.032;13.790;2023-06-14T06:37:39;6.40;;;3.20;;
76761;SDS011;65705;51.032;13.790;2023-06-14T06:40:07;10.52;;;3.60;;
76761;SDS011;65705;51.032;13.790;2023-06-14T06:42:34;8.43;;;3.42;;
76761;SDS011;65705;51.032;13.790;2023-06-14T06:45:02;6.75;;;3.17;;
76761;SDS011;65705;51.032;13.790;2023-06-14T06:47:30;10.23;;;3.22;;
76761;SDS011;65705;51.032;13.790;2023-06-14T06:49:56;7.90;;;3.03;;
76761;SDS011;65705;51.032;13.790;2023-06-14T06:52:22;7.78;;;2.90;;
76761;SDS011;65705;51.032;13.790;2023-06-14T06:54:47;6.15;;;3.22;;
76761;SDS011;65705;51.032;13.790;2023-06-14T06:57:14;5.75;;;2.90;;
76761;SDS011;65705;51.032;13.790;2023-06-14T06:59:40;6.72;;;2.97;;
76761;SDS011;65705;51.032;13.790;2023-06-14T07:02:06;5.15;;;2.60;;
76761;SDS011;65705;51.032;13.790;2023-06-14T07:04:31;6.80;;;3.30;;
76761;SDS011;65705;51.032;13.790;2023-06-14T07:06:57;5.38;;;3.20;;
76761;SDS011;65705;51.032;13.790;2023-06-14T07:09:23;7.57;;;3.45;;
76761;SDS011;65705;51.032;13.790;2023-06-14T07:11:49;5.57;;;3.00;;
76761;SDS011;65705;51.032;13.790;2023-06-14T07:14:15;5.30;;;2.88;;
76761;SDS011;65705;51.032;13.790;2023-06-14T07:16:41;5.85;;;2.70;;
76761;SDS011;65705;51.032;13.790;2023-06-14T07:19:08;5.93;;;3.03;;
76761;SDS011;65705;51.032;13.790;2023-06-14T07:21:35;7.70;;;3.00;;
76761;SDS011;65705;51.032;13.790;2023-06-14T07:24:04;4.70;;;2.90;;
76761;SDS011;65705;51.032;13.790;2023-06-14T07:26:33;6.07;;;3.03;;
76761;SDS011;65705;51.032;13.790;2023-06-14T07:28:59;4.28;;;2.42;;
76761;SDS011;65705;51.032;13.790;2023-06-14T07:31:25;5.22;;;2.70;;
76761;SDS011;65705;51.032;13.790;2023-06-14T07:33:51;5.43;;;3.20;;
76761;SDS011;65705;51.032;13.790;2023-06-14T07:36:17;10.23;;;4.20;;
76761;SDS011;65705;51.032;13.790;2023-06-14T07:38:43;7.15;;;3.55;;
76761;SDS011;65705;51.032;13.790;2023-06-14T07:41:10;6.97;;;3.00;;
76761;SDS011;65705;51.032;13.790;2023-06-14T07:43:36;5.15;;;3.08;;
76761;SDS011;65705;51.032;13.790;2023-06-14T07:46:01;6.20;;;2.15;;
76761;SDS011;65705;51.032;13.790;2023-06-14T07:48:27;4.75;;;2.20;;
76761;SDS011;65705;51.032;13.790;2023-06-14T07:50:53;4.28;;;1.90;;
76761;SDS011;65705;51.032;13.790;2023-06-14T07:53:19;6.03;;;2.10;;
76761;SDS011;65705;51.032;13.790;2023-06-14T07:55:45;4.70;;;2.50;;
76761;SDS011;65705;51.032;13.790;2023-06-14T07:58:12;3.97;;;2.10;;
76761;SDS011;65705;51.032;13.790;2023-06-14T08:00:38;4.63;;;2.15;;
76761;SDS011;65705;51.032;13.790;2023-06-14T08:03:04;3.50;;;2.08;;
76761;SDS011;65705;51.032;13.790;2023-06-14T08:05:30;3.90;;;2.17;;
76761;SDS011;65705;51.032;13.790;2023-06-14T08:07:55;5.95;;;2.20;;
76761;SDS011;65705;51.032;13.790;2023-06-14T08:10:21;4.53;;;1.75;;
76761;SDS011;65705;51.032;13.790;2023-06-14T08:12:48;5.45;;;2.08;;
76761;SDS011;65705;51.032;13.790;2023-06-14T08:15:15;6.70;;;2.17;;
76761;SDS011;65705;51.032;13.790;2023-06-14T08:17:42;7.20;;;2.42;;
76761;SDS011;65705;51.032;13.790;2023-06-14T08:20:09;5.20;;;2.53;;
76761;SDS011;65705;51.032;13.790;2023-06-14T08:22:36;5.10;;;2.30;;
76761;SDS011;65705;51.032;13.790;2023-06-14T08:25:02;6.53;;;2.42;;
76761;SDS011;65705;51.032;13.790;2023-06-14T08:27:29;2.58;;;1.55;;
76761;SDS011;65705;51.032;13.790;2023-06-14T08:29:55;2.88;;;1.70;;
76761;SDS011;65705;51.032;13.790;2023-06-14T08:32:21;5.53;;;1.52;;
76761;SDS011;65705;51.032;13.790;2023-06-14T08:34:47;3.25;;;1.40;;
76761;SDS011;65705;51.032;13.790;2023-06-14T08:37:13;4.63;;;1.40;;
76761;SDS011;65705;51.032;13.790;2023-06-14T08:39:39;3.55;;;1.50;;
76761;SDS011;65705;51.032;13.790;2023-06-14T08:42:05;2.95;;;1.67;;
76761;SDS011;65705;51.032;13.790;2023-06-14T08:44:33;2.92;;;1.50;;
76761;SDS011;65705;51.032;13.790;2023-06-14T08:46:59;6.18;;;1.52;;
76761;SDS011;65705;51.032;13.790;2023-06-14T08:49:25;3.13;;;1.65;;
76761;SDS011;65705;51.032;13.790;2023-06-14T08:51:53;4.65;;;1.98;;
76761;SDS011;65705;51.032;13.790;2023-06-14T08:54:23;4.25;;;1.85;;
76761;SDS011;65705;51.032;13.790;2023-06-14T08:56:53;4.25;;;2.20;;
76761;SDS011;65705;51.032;13.790;2023-06-14T08:59:24;3.92;;;2.13;;
76761;SDS011;65705;51.032;13.790;2023-06-14T09:01:54;7.28;;;2.22;;
76761;SDS011;65705;51.032;13.790;2023-06-14T09:04:21;5.55;;;2.50;;
76761;SDS011;65705;51.032;13.790;2023-06-14T09:06:55;2.83;;;1.85;;
76761;SDS011;65705;51.032;13.790;2023-06-14T09:09:21;3.63;;;1.98;;
76761;SDS011;65705;51.032;13.790;2023-06-14T09:11:54;4.75;;;2.13;;
76761;SDS011;65705;51.032;13.790;2023-06-14T09:14:21;4.70;;;1.80;;
76761;SDS011;65705;51.032;13.790;2023-06-14T09:16:52;3.85;;;1.80;;
76761;SDS011;65705;51.032;13.790;2023-06-14T09:19:21;4.47;;;2.10;;
76761;SDS011;65705;51.032;13.790;2023-06-14T09:21:49;3.78;;;1.75;;
76761;SDS011;65705;51.032;13.790;2023-06-14T09:24:15;3.63;;;2.03;;
76761;SDS011;65705;51.032;13.790;2023-06-14T09:26:40;3.42;;;1.92;;
76761;SDS011;65705;51.032;13.790;2023-06-14T09:29:06;6.22;;;2.53;;
76761;SDS011;65705;51.032;13.790;2023-06-14T09:31:32;5.88;;;2.20;;
76761;SDS011;65705;51.032;13.790;2023-06-14T09:33:58;6.40;;;2.50;;
76761;SDS011;65705;51.032;13.790;2023-06-14T09:36:27;4.55;;;2.35;;
76761;SDS011;65705;51.032;13.790;2023-06-14T09:38:53;6.15;;;2.40;;
76761;SDS011;65705;51.032;13.790;2023-06-14T09:41:21;4.72;;;2.00;;
76761;SDS011;65705;51.032;13.790;2023-06-14T09:43:57;5.45;;;2.47;;
76761;SDS011;65705;51.032;13.790;2023-06-14T09:46:29;5.00;;;2.40;;
76761;SDS011;65705;51.032;13.790;2023-06-14T09:48:56;3.97;;;2.30;;
76761;SDS011;65705;51.032;13.790;2023-06-14T09:53:52;8.20;;;2.78;;
76761;SDS011;65705;51.032;13.790;2023-06-14T09:56:20;6.35;;;2.70;;
76761;SDS011;65705;51.032;13.790;2023-06-14T09:58:54;5.03;;;2.50;;
76761;SDS011;65705;51.032;13.790;2023-06-14T10:01:23;5.45;;;2.70;;
76761;SDS011;65705;51.032;13.790;2023-06-14T10:03:50;5.82;;;2.80;;
76761;SDS011;65705;51.032;13.790;2023-06-14T10:06:21;4.82;;;1.88;;
76761;SDS011;65705;51.032;13.790;2023-06-14T10:08:50;5.22;;;1.77;;
76761;SDS011;65705;51.032;13.790;2023-06-14T10:11:20;3.65;;;1.60;;
76761;SDS011;65705;51.032;13.790;2023-06-14T10:13:46;3.50;;;1.70;;
76761;SDS011;65705;51.032;13.790;2023-06-14T10:16:31;4.13;;;1.73;;
76761;SDS011;65705;51.032;13.790;2023-06-14T10:24:15;3.90;;;2.00;;
76761;SDS011;65705;51.032;13.790;2023-06-14T10:26:50;3.30;;;1.70;;
76761;SDS011;65705;51.032;13.790;2023-06-14T10:29:20;3.03;;;1.63;;
76761;SDS011;65705;51.032;13.790;2023-06-14T10:31:50;5.95;;;2.30;;
76761;SDS011;65705;51.032;13.790;2023-06-14T10:34:27;3.38;;;1.63;;
76761;SDS011;65705;51.032;13.790;2023-06-14T10:37:03;3.78;;;1.67;;
76761;SDS011;65705;51.032;13.790;2023-06-14T10:39:38;5.95;;;1.90;;
76761;SDS011;65705;51.032;13.790;2023-06-14T10:42:06;5.43;;;3.40;;
76761;SDS011;65705;51.032;13.790;2023-06-14T10:44:33;4.45;;;2.30;;
76761;SDS011;65705;51.032;13.790;2023-06-14T10:47:06;3.97;;;2.13;;
76761;SDS011;65705;51.032;13.790;2023-06-14T10:49:45;6.03;;;1.92;;
76761;SDS011;65705;51.032;13.790;2023-06-14T10:52:16;5.00;;;2.20;;
76761;SDS011;65705;51.032;13.790;2023-06-14T10:54:58;5.18;;;2.55;;
76761;SDS011;65705;51.032;13.790;2023-06-14T10:57:27;7.13;;;2.75;;
76761;SDS011;65705;51.032;13.790;2023-06-14T10:59:53;5.43;;;2.28;;
76761;SDS011;65705;51.032;13.790;2023-06-14T11:02:27;3.72;;;1.88;;
76761;SDS011;65705;51.032;13.790;2023-06-14T11:05:14;4.50;;;2.58;;
76761;SDS011;65705;51.032;13.790;2023-06-14T11:10:40;4.50;;;2.30;;
76761;SDS011;65705;51.032;13.790;2023-06-14T11:13:08;4.13;;;2.17;;
76761;SDS011;65705;51.032;13.790;2023-06-14T11:15:34;5.65;;;2.10;;
76761;SDS011;65705;51.032;13.790;2023-06-14T11:18:06;12.77;;;2.50;;
76761;SDS011;65705;51.032;13.790;2023-06-14T11:20:33;7.63;;;2.42;;
76761;SDS011;65705;51.032;13.790;2023-06-14T11:23:03;3.83;;;2.20;;
76761;SDS011;65705;51.032;13.790;2023-06-14T11:25:30;7.40;;;2.80;;
76761;SDS011;65705;51.032;13.790;2023-06-14T11:27:56;6.85;;;2.38;;
76761;SDS011;65705;51.032;13.790;2023-06-14T11:30:23;6.10;;;2.60;;
76761;SDS011;65705;51.032;13.790;2023-06-14T11:32:49;4.30;;;2.58;;
76761;SDS011;65705;51.032;13.790;2023-06-14T11:35:17;7.78;;;2.72;;
76761;SDS011;65705;51.032;13.790;2023-06-14T11:37:43;4.13;;;2.10;;
76761;SDS011;65705;51.032;13.790;2023-06-14T11:40:10;4.65;;;2.33;;
76761;SDS011;65705;51.032;13.790;2023-06-14T11:42:37;6.07;;;3.83;;
76761;SDS011;65705;51.032;13.790;2023-06-14T11:45:08;8.93;;;4.10;;
76761;SDS011;65705;51.032;13.790;2023-06-14T11:47:36;8.20;;;3.17;;
76761;SDS011;65705;51.032;13.790;2023-06-14T11:50:02;4.78;;;2.47;;
76761;SDS011;65705;51.032;13.790;2023-06-14T11:52:30;6.93;;;2.47;;
76761;SDS011;65705;51.032;13.790;2023-06-14T11:54:56;11.10;;;2.63;;
76761;SDS011;65705;51.032;13.790;2023-06-14T11:57:22;5.10;;;2.10;;
76761;SDS011;65705;51.032;13.790;2023-06-14T11:59:49;4.03;;;2.30;;
76761;SDS011;65705;51.032;13.790;2023-06-14T12:02:18;4.85;;;2.47;;
76761;SDS011;65705;51.032;13.790;2023-06-14T12:04:48;4.32;;;2.42;;
76761;SDS011;65705;51.032;13.790;2023-06-14T12:07:14;6.80;;;2.65;;
76761;SDS011;65705;51.032;13.790;2023-06-14T12:09:42;6.05;;;2.53;;
76761;SDS011;65705;51.032;13.790;2023-06-14T12:12:36;7.03;;;2.20;;
76761;SDS011;65705;51.032;13.790;2023-06-14T12:15:04;3.83;;;2.40;;
76761;SDS011;65705;51.032;13.790;2023-06-14T12:17:35;5.95;;;2.75;;
76761;SDS011;65705;51.032;13.790;2023-06-14T12:20:08;4.57;;;2.53;;
76761;SDS011;65705;51.032;13.790;2023-06-14T12:22:47;4.55;;;2.60;;
76761;SDS011;65705;51.032;13.790;2023-06-14T12:25:23;4.53;;;2.72;;
76761;SDS011;65705;51.032;13.790;2023-06-14T12:28:07;6.82;;;2.38;;
76761;SDS011;65705;51.032;13.790;2023-06-14T12:30:34;6.55;;;2.30;;
76761;SDS011;65705;51.032;13.790;2023-06-14T12:33:01;6.53;;;2.55;;
76761;SDS011;65705;51.032;13.790;2023-06-14T12:35:27;6.10;;;2.67;;
76761;SDS011;65705;51.032;13.790;2023-06-14T12:37:53;6.72;;;2.30;;
76761;SDS011;65705;51.032;13.790;2023-06-14T12:40:19;6.13;;;3.00;;
76761;SDS011;65705;51.032;13.790;2023-06-14T12:42:45;9.70;;;2.58;;
76761;SDS011;65705;51.032;13.790;2023-06-14T12:45:13;6.50;;;2.63;;
76761;SDS011;65705;51.032;13.790;2023-06-14T12:47:40;5.10;;;2.60;;
76761;SDS011;65705;51.032;13.790;2023-06-14T12:50:06;5.68;;;2.70;;
76761;SDS011;65705;51.032;13.790;2023-06-14T12:52:32;3.97;;;2.13;;
76761;SDS011;65705;51.032;13.790;2023-06-14T12:55:07;7.45;;;2.67;;
76761;SDS011;65705;51.032;13.790;2023-06-14T12:57:33;6.90;;;2.38;;
76761;SDS011;65705;51.032;13.790;2023-06-14T13:00:02;6.45;;;2.45;;
76761;SDS011;65705;51.032;13.790;2023-06-14T13:02:28;4.00;;;2.05;;
76761;SDS011;65705;51.032;13.790;2023-06-14T13:04:54;7.68;;;2.42;;
76761;SDS011;65705;51.032;13.790;2023-06-14T13:07:20;4.35;;;2.38;;
76761;SDS011;65705;51.032;13.790;2023-06-14T13:09:45;5.38;;;3.22;;
76761;SDS011;65705;51.032;13.790;2023-06-14T13:12:11;4.22;;;2.35;;
76761;SDS011;65705;51.032;13.790;2023-06-14T13:14:37;7.22;;;3.03;;
76761;SDS011;65705;51.032;13.790;2023-06-14T13:17:04;5.97;;;2.60;;
76761;SDS011;65705;51.032;13.790;2023-06-14T13:19:31;5.47;;;2.70;;
76761;SDS011;65705;51.032;13.790;2023-06-14T13:21:56;5.38;;;2.25;;
76761;SDS011;65705;51.032;13.790;2023-06-14T13:24:22;4.78;;;2.35;;
76761;SDS011;65705;51.032;13.790;2023-06-14T13:26:48;4.40;;;2.15;;
76761;SDS011;65705;51.032;13.790;2023-06-14T13:29:14;3.67;;;1.98;;
76761;SDS011;65705;51.032;13.790;2023-06-14T13:31:39;4.43;;;2.70;;
76761;SDS011;65705;51.032;13.790;2023-06-14T13:34:05;5.28;;;2.53;;
76761;SDS011;65705;51.032;13.790;2023-06-14T13:36:31;9.15;;;2.90;;
76761;SDS011;65705;51.032;13.790;2023-06-14T13:38:57;6.38;;;2.72;;
76761;SDS011;65705;51.032;13.790;2023-06-14T13:41:25;5.75;;;2.53;;
76761;SDS011;65705;51.032;13.790;2023-06-14T13:43:57;4.18;;;2.28;;
76761;SDS011;65705;51.032;13.790;2023-06-14T13:46:23;4.82;;;2.55;;
76761;SDS011;65705;51.032;13.790;2023-06-14T13:48:49;8.45;;;2.65;;
76761;SDS011;65705;51.032;13.790;2023-06-14T13:51:15;5.60;;;2.72;;
76761;SDS011;65705;51.032;13.790;2023-06-14T13:53:45;7.55;;;2.40;;
76761;SDS011;65705;51.032;13.790;2023-06-14T13:56:11;12.85;;;2.60;;
76761;SDS011;65705;51.032;13.790;2023-06-14T13:58:37;3.50;;;2.10;;
76761;SDS011;65705;51.032;13.790;2023-06-14T14:01:03;4.43;;;2.00;;
76761;SDS011;65705;51.032;13.790;2023-06-14T14:03:29;6.97;;;3.45;;
76761;SDS011;65705;51.032;13.790;2023-06-14T14:05:56;5.75;;;2.92;;
76761;SDS011;65705;51.032;13.790;2023-06-14T14:08:21;6.97;;;2.28;;
76761;SDS011;65705;51.032;13.790;2023-06-14T14:10:47;6.80;;;2.30;;
76761;SDS011;65705;51.032;13.790;2023-06-14T14:13:13;3.97;;;1.55;;
76761;SDS011;65705;51.032;13.790;2023-06-14T14:15:39;3.65;;;1.80;;
76761;SDS011;65705;51.032;13.790;2023-06-14T14:18:05;8.00;;;2.00;;
76761;SDS011;65705;51.032;13.790;2023-06-14T14:20:31;6.47;;;2.05;;
76761;SDS011;65705;51.032;13.790;2023-06-14T14:22:57;4.07;;;1.83;;
76761;SDS011;65705;51.032;13.790;2023-06-14T14:25:22;4.18;;;2.20;;
76761;SDS011;65705;51.032;13.790;2023-06-14T14:27:48;3.33;;;1.60;;
76761;SDS011;65705;51.032;13.790;2023-06-14T14:30:14;6.70;;;1.92;;
76761;SDS011;65705;51.032;13.790;2023-06-14T14:32:42;4.07;;;1.80;;
76761;SDS011;65705;51.032;13.790;2023-06-14T14:35:08;5.28;;;1.98;;
76761;SDS011;65705;51.032;13.790;2023-06-14T14:37:34;2.58;;;1.50;;
76761;SDS011;65705;51.032;13.790;2023-06-14T14:40:00;3.83;;;1.80;;
76761;SDS011;65705;51.032;13.790;2023-06-14T14:42:25;5.68;;;2.15;;
76761;SDS011;65705;51.032;13.790;2023-06-14T14:44:52;6.18;;;3.47;;
76761;SDS011;65705;51.032;13.790;2023-06-14T14:47:17;7.38;;;2.75;;
76761;SDS011;65705;51.032;13.790;2023-06-14T14:49:43;4.50;;;1.95;;
76761;SDS011;65705;51.032;13.790;2023-06-14T14:52:09;4.63;;;2.13;;
76761;SDS011;65705;51.032;13.790;2023-06-14T14:54:34;3.55;;;1.88;;